Time;durP1;ratioP1;P1;durP2;ratioP2;P2;SDS_P1;SDS_P2;PMS_P1;PMS_P2;Temp;Humidity;BMP_temperature;BMP_pressure;BME280_temperature;BME280_humidity;BME280_pressure;Samples;Min_cycle;Max_cycle;Signal;HPM_P1;HPM_P2
2023/01/18 00:01:18;;;;;;;0.70;0.70;;;6.40;75.20;;;5.38;63.67;92003.81;4993547;28;20194;-41
2023/01/18 00:03:45;;;;;;;0.75;0.75;;;6.40;75.20;;;5.36;63.60;92009.25;4993302;28;20580;-41
2023/01/18 00:06:12;;;;;;;0.70;0.70;;;6.40;75.20;;;5.38;63.79;92012.41;4993591;28;20572;-41
2023/01/18 00:08:41;;;;;;;0.70;0.70;;;6.40;75.20;;;5.39;63.69;92008.75;4993507;28;20633;-41
2023/01/18 00:11:14;;;;;;;0.60;0.60;;;6.40;75.20;;;5.38;63.76;92012.41;5059450;28;20691;-41
2023/01/18 00:13:42;;;;;;;0.80;0.80;;;6.40;75.40;;;5.38;63.68;92014.19;4993296;28;20186;-41
2023/01/18 00:16:19;;;;;;;0.80;0.80;;;6.40;75.20;;;5.37;63.74;92016.03;4993397;28;20210;-41
2023/01/18 00:18:55;;;;;;;0.70;0.70;;;6.40;75.20;;;5.36;63.54;92008.44;4993400;28;20184;-41
2023/01/18 00:21:24;;;;;;;0.68;0.68;;;6.40;75.20;;;5.35;63.66;92005.06;4993165;28;20186;-41
2023/01/18 00:23:53;;;;;;;0.60;0.60;;;6.40;75.20;;;5.33;63.69;92012.28;4992908;28;20211;-40
2023/01/18 00:26:20;;;;;;;0.70;0.70;;;6.40;75.20;;;5.33;63.79;92011.50;5059599;28;20244;-41
2023/01/18 00:28:47;;;;;;;0.60;0.60;;;6.40;75.30;;;5.33;63.70;92012.28;4992961;28;20194;-41
2023/01/18 00:31:19;;;;;;;0.70;0.70;;;6.40;75.30;;;5.32;63.66;92009.94;4992061;28;20660;-41
2023/01/18 00:33:48;;;;;;;0.68;0.68;;;6.40;75.40;;;5.31;63.60;92009.16;4992110;28;20200;-41
2023/01/18 00:36:17;;;;;;;0.70;0.70;;;6.30;75.20;;;5.32;63.49;92015.91;4992958;28;20216;-41
2023/01/18 00:38:51;;;;;;;0.80;0.80;;;6.40;75.30;;;5.29;63.70;92018.97;4992845;28;20224;-41
2023/01/18 00:41:19;;;;;;;0.70;0.70;;;6.40;75.30;;;5.29;63.53;92016.38;4992926;28;20190;-41
2023/01/18 00:43:47;;;;;;;0.70;0.70;;;6.30;75.20;;;5.29;63.59;92017.16;4992654;28;20186;-41
2023/01/18 00:46:21;;;;;;;0.70;0.70;;;6.30;75.20;;;5.28;63.59;92017.41;4992848;28;20198;-41
2023/01/18 00:48:49;;;;;;;0.70;0.70;;;6.30;75.20;;;5.29;63.68;92017.16;4992820;28;20198;-41
2023/01/18 00:51:20;;;;;;;0.60;0.60;;;6.40;76.10;;;5.30;63.46;92023.16;5058845;28;20209;-41
2023/01/18 00:53:47;;;;;;;0.70;0.70;;;6.30;75.20;;;5.30;63.65;92020.56;4992631;28;20201;-41
2023/01/18 00:56:20;;;;;;;0.70;0.70;;;6.30;75.20;;;5.31;63.59;92018.75;4992589;28;20221;-41
2023/01/18 00:58:48;;;;;;;0.70;0.70;;;6.30;75.30;;;5.32;63.37;92022.91;5059648;28;20223;-41
2023/01/18 01:01:15;;;;;;;0.80;0.80;;;6.30;75.30;;;5.33;63.42;92024.50;5059936;28;20511;-41
2023/01/18 01:06:44;;;;;;;0.70;0.70;;;6.30;76.00;;;5.33;63.41;92040.09;4992623;28;20196;-41
2023/01/18 01:09:23;;;;;;;0.70;0.70;;;6.30;75.30;;;5.31;63.36;92045.53;5052414;28;20213;-41
2023/01/18 01:26:06;;;;;;;0.68;0.68;;;6.40;75.40;;;5.35;63.50;92054.44;4992090;28;20251;-41
2023/01/18 01:28:38;;;;;;;0.70;0.70;;;6.40;75.30;;;5.37;63.17;92046.41;4992319;28;20262;-41
2023/01/18 01:31:12;;;;;;;0.70;0.70;;;6.40;75.40;;;5.37;63.06;92049.00;4992235;28;20265;-41
2023/01/18 01:33:40;;;;;;;0.70;0.70;;;6.40;75.30;;;5.38;63.36;92040.19;4992196;28;20282;-41
2023/01/18 01:36:15;;;;;;;0.70;0.70;;;6.40;75.30;;;5.39;63.08;92032.16;5059024;28;20246;-41
2023/01/18 01:38:42;;;;;;;0.70;0.70;;;6.40;75.40;;;5.40;63.05;92023.34;4992113;28;20453;-41
2023/01/18 01:41:27;;;;;;;0.70;0.70;;;6.40;75.30;;;5.41;62.82;92029.34;4992073;28;20198;-41
2023/01/18 01:44:28;;;;;;;0.80;0.80;;;6.40;75.40;;;5.39;63.05;92034.75;4995173;28;20253;-41
2023/01/18 01:47:31;;;;;;;0.70;0.70;;;6.40;75.50;;;5.37;62.82;92023.00;5002996;28;20226;-41
2023/01/18 01:50:07;;;;;;;0.70;0.70;;;6.40;75.30;;;5.37;63.21;92026.41;5006641;28;20217;-41
2023/01/18 01:52:37;;;;;;;0.70;0.70;;;6.40;75.30;;;5.37;62.94;92015.22;5063160;28;20582;-41
2023/01/18 01:55:12;;;;;;;0.80;0.80;;;6.40;75.30;;;5.38;63.09;92001.19;4995400;28;20202;-41
2023/01/18 01:57:51;;;;;;;0.60;0.60;;;6.40;75.40;;;5.37;62.79;91990.03;5062512;28;20671;-41
2023/01/18 02:00:23;;;;;;;0.70;0.70;;;6.40;75.40;;;5.37;63.07;91984.84;4995412;28;20182;-41
2023/01/18 02:02:59;;;;;;;0.70;0.70;;;6.40;75.40;;;5.37;62.92;91995.22;5045148;28;20285;-41
2023/01/18 02:05:30;;;;;;;0.70;0.70;;;6.40;75.40;;;5.35;63.00;91986.88;4995585;28;20182;-41
2023/01/18 02:08:02;;;;;;;0.80;0.80;;;6.40;75.40;;;5.33;62.91;91973.31;5061033;28;20202;-41
2023/01/18 02:10:29;;;;;;;0.80;0.80;;;6.40;75.50;;;5.34;63.37;91966.31;4978184;28;20187;-41
2023/01/18 02:12:57;;;;;;;0.80;0.80;;;6.40;75.40;;;5.35;63.33;91952.31;4994828;28;20281;-41
2023/01/18 02:15:37;;;;;;;0.70;0.70;;;6.30;75.40;;;5.35;63.26;91952.31;5061808;28;20535;-41
2023/01/18 02:18:21;;;;;;;0.80;0.80;;;6.40;75.60;;;5.35;63.20;91944.50;5062412;28;20206;-41
2023/01/18 02:21:16;;;;;;;0.80;0.80;;;6.30;75.60;;;5.35;63.16;91953.06;4995162;28;20197;-41
2023/01/18 02:24:20;;;;;;;0.80;0.80;;;6.30;75.40;;;5.32;63.07;91966.53;5062017;28;20233;-41
2023/01/18 02:27:22;;;;;;;0.80;0.80;;;6.30;75.60;;;5.33;63.06;91985.53;4994771;28;20316;-41
2023/01/18 02:30:56;;;;;;;1.00;1.00;;;6.30;75.60;;;5.29;63.12;91993.75;5056896;28;20543;-41
2023/01/18 02:33:51;;;;;;;0.70;0.70;;;6.30;75.60;;;5.28;63.35;92002.59;5055144;28;20192;-41
2023/01/18 02:36:49;;;;;;;0.80;0.80;;;6.30;75.30;;;5.24;63.11;92011.09;4994523;28;20233;-41
2023/01/18 02:40:00;;;;;;;0.70;0.70;;;6.30;75.70;;;5.24;63.39;92022.25;4994906;28;20192;-41
2023/01/18 02:48:20;;;;;;;0.70;0.70;;;6.30;75.60;;;5.20;63.37;92033.34;5051731;28;20526;-41
2023/01/18 02:50:47;;;;;;;0.70;0.70;;;6.20;75.40;;;5.19;63.49;92035.16;5061864;28;20178;-41
2023/01/18 02:53:14;;;;;;;0.73;0.73;;;6.20;75.50;;;5.20;63.84;92041.13;4993998;28;20194;-41
2023/01/18 02:55:47;;;;;;;0.70;0.70;;;6.20;75.60;;;5.21;63.53;92053.09;5060432;28;20652;-41
2023/01/18 02:58:28;;;;;;;0.70;0.70;;;6.20;75.80;;;5.20;63.51;92059.31;5061439;28;20570;-41
2023/01/18 03:01:25;;;;;;;0.80;0.80;;;6.20;75.90;;;5.21;63.53;92079.09;5058867;28;20235;-42
2023/01/18 03:03:58;;;;;;;0.70;0.70;;;6.20;75.90;;;5.21;63.74;92076.50;4977337;28;20304;-41
2023/01/18 03:06:28;;;;;;;0.80;0.80;;;6.20;76.60;;;5.22;63.67;92084.06;5061304;28;20622;-41
2023/01/18 03:08:57;;;;;;;0.80;0.80;;;6.20;75.80;;;5.23;63.63;92085.63;4994165;28;20212;-41
2023/01/18 03:12:07;;;;;;;0.80;0.80;;;6.20;76.00;;;5.23;63.53;92077.84;5061294;28;20198;-41
2023/01/18 03:15:09;;;;;;;0.70;0.70;;;6.20;76.00;;;5.24;63.56;92066.44;5061318;28;20214;-41
2023/01/18 03:17:45;;;;;;;0.70;0.70;;;6.30;75.90;;;5.23;63.79;92070.03;5025422;28;20267;-41
2023/01/18 03:20:16;;;;;;;0.70;0.70;;;6.20;75.90;;;5.25;63.53;92068.03;5061403;28;20178;-41
2023/01/18 03:25:58;;;;;;;0.80;0.80;;;6.20;76.00;;;5.26;63.65;92067.00;4993739;28;20325;-41
2023/01/18 03:34:48;;;;;;;0.80;0.80;;;6.20;75.90;;;5.22;63.77;92065.88;4993785;28;20277;-41
2023/01/18 03:37:43;;;;;;;0.70;0.70;;;6.20;75.80;;;5.21;63.55;92058.31;4993892;28;20651;-41
2023/01/18 03:40:22;;;;;;;0.73;0.73;;;6.20;76.00;;;5.21;63.73;92051.31;4995129;28;20218;-41
2023/01/18 03:43:10;;;;;;;0.70;0.70;;;6.20;75.80;;;5.20;63.88;92057.53;5060808;28;20179;-41
2023/01/18 03:45:48;;;;;;;0.70;0.70;;;6.30;76.00;;;5.21;63.94;92047.91;5057603;28;20187;-41
2023/01/18 03:48:16;;;;;;;0.80;0.80;;;6.30;76.80;;;5.22;63.91;92047.69;5060876;28;20186;-41
2023/01/18 03:51:09;;;;;;;0.70;0.70;;;6.30;75.90;;;5.21;63.58;92046.13;4993507;28;20583;-41
2023/01/18 03:53:57;;;;;;;0.80;0.80;;;6.20;75.90;;;5.19;63.75;92039.53;4993967;28;20637;-41
2023/01/18 03:57:06;;;;;;;0.75;0.75;;;6.20;75.90;;;5.21;63.81;92042.72;5060260;28;20236;-41
2023/01/18 03:59:37;;;;;;;0.80;0.80;;;6.20;76.10;;;5.21;63.62;92040.13;4993626;28;20598;-41
2023/01/18 04:02:06;;;;;;;0.80;0.80;;;6.20;75.80;;;5.23;63.81;92038.09;4993992;28;20535;-41
2023/01/18 04:04:34;;;;;;;0.80;0.80;;;6.20;75.80;;;5.25;63.73;92038.66;4993235;28;20191;-41
2023/01/18 04:07:01;;;;;;;0.70;0.70;;;6.20;75.80;;;5.28;63.44;92049.38;4993273;28;20202;-41
2023/01/18 04:09:28;;;;;;;0.80;0.80;;;6.20;75.90;;;5.29;63.60;92039.75;4993288;28;20226;-41
2023/01/18 04:11:55;;;;;;;0.80;0.80;;;6.30;76.00;;;5.30;63.56;92036.16;4993363;28;20198;-41
2023/01/18 04:14:22;;;;;;;0.80;0.80;;;6.30;76.00;;;5.32;63.50;92048.91;5060139;28;20222;-41
2023/01/18 04:16:49;;;;;;;0.80;0.80;;;6.30;76.00;;;5.33;63.58;92040.09;4993045;28;20245;-41
2023/01/18 04:19:17;;;;;;;0.70;0.70;;;6.30;76.00;;;5.34;63.41;92049.47;4993151;28;20262;-41
2023/01/18 04:21:44;;;;;;;0.70;0.70;;;6.30;75.90;;;5.34;63.54;92031.28;4993539;28;20221;-41
2023/01/18 04:24:11;;;;;;;0.80;0.80;;;6.30;75.90;;;5.35;63.45;92041.44;4993070;28;20198;-41
2023/01/18 04:26:38;;;;;;;0.70;0.70;;;6.30;75.90;;;5.36;63.47;92042.22;4992881;28;20237;-41
2023/01/18 04:29:05;;;;;;;0.77;0.77;;;6.30;75.90;;;5.37;63.60;92039.41;5043452;28;20564;-41
2023/01/18 04:31:32;;;;;;;0.70;0.70;;;6.30;75.90;;;5.37;63.61;92039.41;4993084;28;20194;-41
2023/01/18 04:33:59;;;;;;;0.77;0.77;;;6.30;76.00;;;5.39;63.47;92052.94;5059745;28;20202;-42
2023/01/18 04:36:27;;;;;;;0.77;0.77;;;6.40;76.10;;;5.40;63.64;92058.94;4992957;28;20198;-41
2023/01/18 04:38:54;;;;;;;0.70;0.70;;;6.30;75.90;;;5.41;63.40;92065.72;4993153;28;20194;-40
2023/01/18 04:41:22;;;;;;;0.70;0.70;;;6.40;76.00;;;5.41;63.33;92063.91;4992893;28;20205;-40
2023/01/18 04:43:49;;;;;;;0.70;0.70;;;6.30;75.90;;;5.42;63.43;92062.09;4992684;28;20208;-41
2023/01/18 04:46:16;;;;;;;0.70;0.70;;;6.40;75.90;;;5.41;63.24;92068.34;4992741;28;20531;-41
2023/01/18 04:48:43;;;;;;;0.77;0.77;;;6.40;75.90;;;5.41;63.53;92070.94;4993014;28;20209;-40
2023/01/18 04:51:12;;;;;;;0.70;0.70;;;6.30;75.80;;;5.40;63.51;92074.53;4992712;28;20201;-41
2023/01/18 04:53:42;;;;;;;0.80;0.80;;;6.40;75.90;;;5.41;62.73;92081.31;4992641;28;20209;-41
2023/01/18 04:56:10;;;;;;;0.80;0.80;;;6.40;75.90;;;5.40;63.42;92079.75;5059730;28;20205;-41
2023/01/18 04:58:38;;;;;;;0.75;0.75;;;6.40;76.00;;;5.41;63.44;92074.31;5059327;28;20293;-41
2023/01/18 05:01:07;;;;;;;0.70;0.70;;;6.30;75.80;;;5.41;63.45;92079.50;4992619;28;20194;-41
2023/01/18 05:03:37;;;;;;;0.80;0.80;;;6.40;75.90;;;5.41;63.27;92073.53;5058896;28;20565;-41
2023/01/18 05:06:10;;;;;;;0.70;0.70;;;6.30;75.90;;;5.39;63.21;92071.13;5058626;28;20582;-41
2023/01/18 05:08:39;;;;;;;0.70;0.70;;;6.30;76.00;;;5.38;63.27;92079.16;4993119;28;20666;-40
2023/01/18 05:11:25;;;;;;;0.70;0.70;;;6.40;75.90;;;5.38;63.25;92079.16;4992463;28;20195;-41
2023/01/18 05:13:53;;;;;;;0.80;0.80;;;6.30;76.10;;;5.37;63.60;92068.00;4992549;28;20186;-41
2023/01/18 05:16:22;;;;;;;0.70;0.70;;;6.40;76.00;;;5.36;63.57;92073.41;5059671;28;20198;-41
2023/01/18 05:18:49;;;;;;;0.70;0.70;;;6.40;76.00;;;5.36;63.27;92074.22;4995378;28;20703;-41
2023/01/18 05:21:16;;;;;;;0.70;0.70;;;6.40;75.90;;;5.37;63.42;92075.00;4995896;28;20194;-41
2023/01/18 05:23:43;;;;;;;0.70;0.70;;;6.40;76.00;;;5.36;63.36;92071.63;5063372;28;20190;-41
2023/01/18 05:26:17;;;;;;;0.70;0.70;;;6.40;76.00;;;5.36;63.19;92071.63;4995383;28;20237;-41
2023/01/18 05:28:45;;;;;;;0.70;0.70;;;6.40;76.10;;;5.37;63.42;92064.59;5063447;28;20183;-41
2023/01/18 05:31:14;;;;;;;0.70;0.70;;;6.40;76.00;;;5.36;63.29;92071.63;5063425;28;20289;-41
2023/01/18 05:33:42;;;;;;;0.70;0.70;;;6.30;75.90;;;5.34;63.60;92072.88;4995872;28;20202;-40
2023/01/18 05:36:09;;;;;;;0.80;0.80;;;6.30;76.00;;;5.31;63.68;92087.13;4995551;28;20296;-41
2023/01/18 05:38:36;;;;;;;0.70;0.70;;;6.30;75.90;;;5.30;63.64;92106.31;4995455;28;20519;-40
2023/01/18 05:41:03;;;;;;;0.80;0.80;;;6.30;75.90;;;5.31;63.48;92114.91;4995750;28;20277;-41
2023/01/18 05:43:31;;;;;;;0.80;0.80;;;6.30;75.90;;;5.30;63.49;92127.09;4994518;28;20596;-33
2023/01/18 05:45:59;;;;;;;0.80;0.80;;;6.30;76.10;;;5.30;63.71;92134.91;4995312;28;20198;-33
2023/01/18 05:48:27;;;;;;;0.70;0.70;;;6.30;76.00;;;5.30;63.89;92150.50;4995374;28;20204;-33
2023/01/18 05:50:54;;;;;;;0.70;0.70;;;6.30;76.00;;;5.30;63.80;92150.50;5062968;28;20531;-33
2023/01/18 05:53:22;;;;;;;0.70;0.70;;;6.30;76.00;;;5.30;63.61;92147.91;4995370;28;20214;-33
2023/01/18 05:56:04;;;;;;;0.70;0.70;;;6.30;76.10;;;5.30;63.65;92163.50;4995162;28;20206;-33
2023/01/18 05:58:31;;;;;;;0.70;0.70;;;6.30;76.30;;;5.31;63.52;92165.06;5062353;28;20224;-33
2023/01/18 06:00:58;;;;;;;0.70;0.70;;;6.30;76.10;;;5.31;63.80;92159.06;4995505;28;20255;-33
2023/01/18 06:03:25;;;;;;;0.70;0.70;;;6.30;76.10;;;5.31;63.83;92167.69;4995182;28;20206;-33
2023/01/18 06:05:52;;;;;;;0.70;0.70;;;6.30;76.20;;;5.29;63.94;92175.69;4995012;28;20514;-33
2023/01/18 06:08:20;;;;;;;0.70;0.70;;;6.30;76.10;;;5.27;63.92;92176.94;4995107;28;20202;-33
2023/01/18 06:10:56;;;;;;;0.60;0.60;;;6.30;76.10;;;5.25;63.93;92181.56;5062429;28;20248;-33
2023/01/18 06:13:26;;;;;;;0.70;0.70;;;6.30;76.10;;;5.22;63.85;92180.19;5063639;28;20190;-33
2023/01/18 06:15:55;;;;;;;0.70;0.70;;;6.30;76.00;;;5.23;63.89;92186.19;5061073;28;20187;-33
2023/01/18 06:18:24;;;;;;;0.70;0.70;;;6.30;76.00;;;5.21;64.00;92183.84;4995289;28;20586;-33
2023/01/18 06:20:56;;;;;;;0.70;0.70;;;6.20;76.00;;;5.21;64.20;92188.22;5062502;28;20186;-33
2023/01/18 06:23:28;;;;;;;0.70;0.70;;;6.20;76.10;;;5.20;63.88;92187.44;4995257;28;20182;-33
2023/01/18 06:25:55;;;;;;;0.70;0.70;;;6.20;76.00;;;5.16;64.38;92185.53;4994595;28;20226;-33
2023/01/18 06:28:22;;;;;;;0.85;0.85;;;6.20;76.10;;;5.15;64.32;92189.94;4993838;28;20530;-33
2023/01/18 06:30:54;;;;;;;0.70;0.70;;;6.20;76.20;;;5.12;64.43;92185.97;4994738;28;20561;-33
2023/01/18 06:33:23;;;;;;;0.70;0.70;;;6.20;76.20;;;5.07;64.71;92195.47;4994944;28;20217;-34
2023/01/18 06:35:51;;;;;;;0.80;0.80;;;6.10;76.30;;;5.04;64.18;92193.31;4994849;28;20202;-33
2023/01/18 06:38:18;;;;;;;0.70;0.70;;;6.10;76.40;;;4.99;64.41;92203.59;5062105;28;20241;-33
2023/01/18 06:40:45;;;;;;;0.60;0.60;;;6.00;76.30;;;4.92;64.54;92201.06;5045520;28;20205;-33
2023/01/18 06:43:12;;;;;;;0.70;0.70;;;5.90;76.20;;;4.85;64.41;92203.78;5045886;28;20194;-33
2023/01/18 06:45:40;;;;;;;0.70;0.70;;;5.90;76.30;;;4.76;64.76;92203.34;4994557;28;20633;-33
2023/01/18 06:48:07;;;;;;;0.70;0.70;;;5.80;76.30;;;4.68;64.85;92211.44;5061400;28;20233;-33
2023/01/18 06:50:34;;;;;;;0.70;0.70;;;5.80;76.30;;;4.61;64.86;92210.75;4993666;28;20195;-33
2023/01/18 06:53:02;;;;;;;0.60;0.60;;;5.70;76.30;;;4.51;65.14;92213.09;4994426;28;20205;-33
2023/01/18 06:55:29;;;;;;;0.70;0.70;;;5.60;76.40;;;4.47;65.10;92210.16;4994256;28;20202;-33
2023/01/18 06:57:56;;;;;;;0.70;0.70;;;5.60;76.60;;;4.40;65.21;92210.22;4994447;28;20548;-33
2023/01/18 07:00:23;;;;;;;0.70;0.70;;;5.50;76.50;;;4.33;65.27;92204.34;4994420;28;20200;-33
2023/01/18 07:02:55;;;;;;;0.77;0.77;;;5.40;76.60;;;4.29;64.88;92208.38;5061039;28;20217;-33
2023/01/18 07:05:22;;;;;;;0.80;0.80;;;5.40;76.60;;;4.25;65.12;92204.66;4994252;28;20178;-33
2023/01/18 07:07:49;;;;;;;0.60;0.60;;;5.40;76.50;;;4.19;65.28;92208.91;4994271;28;20579;-33
2023/01/18 07:10:16;;;;;;;0.90;0.90;;;5.30;76.50;;;4.17;64.85;92210.94;4994153;28;20194;-33
2023/01/18 07:12:47;;;;;;;0.77;0.77;;;5.30;76.40;;;4.11;65.42;92206.63;4994327;28;20297;-33
2023/01/18 07:15:16;;;;;;;0.70;0.70;;;5.20;76.40;;;4.08;65.04;92207.06;4994390;28;20619;-33
2023/01/18 07:17:49;;;;;;;0.80;0.80;;;5.20;76.50;;;4.06;65.11;92206.50;4994088;28;20206;-33
2023/01/18 07:20:16;;;;;;;0.70;0.70;;;5.10;76.50;;;4.00;65.30;92211.53;4994172;28;20247;-33
2023/01/18 07:22:44;;;;;;;0.70;0.70;;;5.10;77.40;;;4.01;65.36;92217.50;5061185;28;20196;-33
2023/01/18 07:25:18;;;;;;;0.70;0.70;;;5.10;76.60;;;3.99;65.33;92222.94;4993583;28;20230;-33
2023/01/18 07:27:47;;;;;;;0.90;0.90;;;5.10;76.60;;;3.97;65.47;92224.94;4994233;28;20579;-33
2023/01/18 07:30:16;;;;;;;0.70;0.70;;;5.10;76.60;;;3.97;65.33;92222.34;4993885;28;20202;-33
2023/01/18 07:32:48;;;;;;;0.70;0.70;;;5.00;76.50;;;3.98;65.19;92233.53;4993870;28;20194;-33
2023/01/18 07:35:20;;;;;;;0.70;0.70;;;5.00;76.60;;;3.96;65.29;92241.50;5060962;28;20202;-33
2023/01/18 07:37:54;;;;;;;0.70;0.70;;;5.00;76.60;;;3.95;65.06;92249.50;5058258;28;20206;-33
2023/01/18 07:40:21;;;;;;;0.70;0.70;;;5.00;76.70;;;3.95;65.51;92239.91;4993288;28;20674;-33
2023/01/18 07:42:55;;;;;;;0.70;0.70;;;5.00;76.70;;;3.97;65.18;92250.09;5061102;28;20582;-33
2023/01/18 07:45:23;;;;;;;0.70;0.70;;;5.00;76.80;;;3.96;65.64;92254.47;4992869;28;20483;-33
2023/01/18 07:47:52;;;;;;;0.70;0.70;;;5.00;76.90;;;3.99;65.58;92261.00;5060738;28;20209;-33
2023/01/18 07:50:20;;;;;;;0.80;0.80;;;5.00;76.90;;;4.04;65.69;92262.97;4993615;28;20194;-33
2023/01/18 07:52:47;;;;;;;0.70;0.70;;;5.00;76.90;;;4.07;65.77;92275.50;4993567;28;20200;-33
2023/01/18 07:55:14;;;;;;;0.70;0.70;;;5.00;76.90;;;4.08;65.17;92270.09;4993401;28;20198;-33
2023/01/18 07:57:42;;;;;;;0.80;0.80;;;5.00;77.00;;;4.11;65.14;92272.28;4993360;28;20225;-33
2023/01/18 08:00:10;;;;;;;0.70;0.70;;;5.00;77.00;;;4.13;65.21;92282.41;4993477;28;20186;-33
2023/01/18 08:02:40;;;;;;;0.70;0.70;;;5.00;77.10;;;4.14;65.13;92284.78;4993641;28;20555;-33
2023/01/18 08:05:09;;;;;;;0.80;0.80;;;5.10;77.10;;;4.20;65.24;92280.53;4993407;28;20204;-33
2023/01/18 08:07:36;;;;;;;0.70;0.70;;;5.10;77.00;;;4.23;65.09;92285.28;4993307;28;20546;-33
2023/01/18 08:10:04;;;;;;;0.70;0.70;;;5.10;76.90;;;4.26;65.05;92287.47;5060121;28;20190;-33
2023/01/18 08:12:31;;;;;;;0.80;0.80;;;5.20;76.90;;;4.29;64.90;92288.81;4993217;28;20213;-33
2023/01/18 08:14:58;;;;;;;0.70;0.70;;;5.20;76.90;;;4.30;64.76;92298.19;4993372;28;20236;-33
2023/01/18 08:17:26;;;;;;;0.70;0.70;;;5.20;76.80;;;4.35;64.57;92300.91;4993157;28;20197;-33
2023/01/18 08:19:54;;;;;;;0.70;0.70;;;5.20;76.70;;;4.37;64.55;92301.50;5059744;28;20209;-34
2023/01/18 08:22:21;;;;;;;0.70;0.70;;;5.30;76.80;;;4.40;64.30;92297.69;4993096;28;20315;-34
2023/01/18 08:24:48;;;;;;;0.70;0.70;;;5.30;76.60;;;4.39;64.17;92319.44;4992948;28;20273;-33
2023/01/18 08:27:15;;;;;;;0.70;0.70;;;5.30;76.50;;;4.40;64.25;92315.84;4993003;28;20182;-33
2023/01/18 08:29:43;;;;;;;0.70;0.70;;;5.30;76.40;;;4.39;64.37;92309.84;4993266;28;20208;-33
2023/01/18 08:32:11;;;;;;;0.70;0.70;;;5.40;76.50;;;4.41;64.18;92310.44;4993064;28;20649;-33
2023/01/18 08:34:38;;;;;;;0.70;0.70;;;5.30;76.30;;;4.40;64.07;92303.66;4993241;28;20251;-33
2023/01/18 08:37:05;;;;;;;0.70;0.70;;;5.30;76.30;;;4.41;63.90;92318.22;4992777;28;20206;-33
2023/01/18 08:39:32;;;;;;;0.80;0.80;;;5.30;76.30;;;4.40;64.13;92318.44;4992822;28;20222;-33
2023/01/18 08:41:59;;;;;;;0.80;0.80;;;5.30;76.50;;;4.36;63.90;92315.47;4993288;28;20221;-33
2023/01/18 08:44:27;;;;;;;0.70;0.70;;;5.20;76.30;;;4.36;63.51;92325.88;4992780;28;20212;-33
2023/01/18 08:46:54;;;;;;;0.70;0.70;;;5.20;76.20;;;4.35;63.56;92326.09;5059344;28;20281;-33
2023/01/18 08:49:21;;;;;;;0.70;0.70;;;5.20;76.20;;;4.33;63.38;92326.28;4993116;28;20194;-33
2023/01/18 08:51:48;;;;;;;0.70;0.70;;;5.20;76.20;;;4.37;63.53;92340.44;4991792;28;20205;-33
2023/01/18 08:54:15;;;;;;;0.70;0.70;;;5.20;76.30;;;4.36;63.73;92328.47;4992677;28;20190;-33
2023/01/18 08:56:42;;;;;;;0.80;0.80;;;5.20;76.30;;;4.37;63.40;92331.84;4992502;28;20209;-33
2023/01/18 08:59:09;;;;;;;0.70;0.70;;;5.20;76.10;;;4.39;63.30;92335.00;4992573;28;20225;-33
2023/01/18 09:01:37;;;;;;;0.70;0.70;;;5.20;77.00;;;4.39;63.49;92332.41;4992585;28;20221;-33
2023/01/18 09:04:04;;;;;;;0.80;0.80;;;5.20;76.10;;;4.41;63.38;92344.16;5059639;28;20578;-33
2023/01/18 09:06:32;;;;;;;0.70;0.70;;;5.20;76.10;;;4.43;63.18;92343.94;4992441;28;20676;-33
2023/01/18 09:09:00;;;;;;;0.80;0.80;;;5.30;76.00;;;4.46;63.32;92349.50;4992692;28;20220;-33
2023/01/18 09:11:27;;;;;;;0.70;0.70;;;5.30;76.10;;;4.47;62.92;92361.47;4991966;28;20509;-33
2023/01/18 09:13:55;;;;;;;0.70;0.70;;;5.40;76.00;;;4.47;63.19;92364.06;4992659;28;20194;-33
2023/01/18 09:16:29;;;;;;;0.80;0.80;;;5.40;75.90;;;4.49;63.29;92372.44;4992484;28;20605;-33
2023/01/18 09:18:57;;;;;;;0.80;0.80;;;5.40;75.90;;;4.51;63.01;92385.19;4992587;28;20214;-33
2023/01/18 09:21:26;;;;;;;0.70;0.70;;;5.40;75.90;;;4.51;63.09;92397.38;4975416;28;20212;-33
2023/01/18 09:23:54;;;;;;;0.70;0.70;;;5.40;75.80;;;4.54;63.25;92397.75;4992434;28;20507;-33
2023/01/18 09:26:21;;;;;;;0.70;0.70;;;5.40;75.80;;;4.60;62.94;92399.47;4992242;28;20245;-33
2023/01/18 09:28:51;;;;;;;0.70;0.70;;;5.40;75.90;;;4.63;62.84;92403.44;4992263;28;20537;-33
2023/01/18 09:31:21;;;;;;;0.70;0.70;;;5.40;75.60;;;4.68;62.22;92411.34;5059179;28;20213;-33
2023/01/18 09:33:49;;;;;;;0.80;0.80;;;5.40;75.40;;;4.69;61.90;92417.31;4992328;28;20205;-33
2023/01/18 09:36:25;;;;;;;0.70;0.70;;;5.40;75.40;;;4.73;62.03;92419.28;4992377;28;20202;-33
2023/01/18 09:38:54;;;;;;;0.70;0.70;;;5.40;75.60;;;4.77;62.15;92417.84;4992268;28;20206;-33
2023/01/18 09:41:43;;;;;;;0.80;0.80;;;5.40;75.40;;;4.80;61.92;92429.59;5059686;28;20305;-33
2023/01/18 09:44:28;;;;;;;0.70;0.70;;;5.50;75.10;;;4.79;61.72;92431.38;4992234;28;20257;-33
2023/01/18 09:47:02;;;;;;;0.70;0.70;;;5.50;74.80;;;4.82;61.37;92443.13;4990958;28;20213;-33
2023/01/18 09:49:50;;;;;;;0.80;0.80;;;5.60;75.00;;;4.84;61.57;92442.94;4992001;28;20211;-33
2023/01/18 09:52:39;;;;;;;0.70;0.70;;;5.50;74.90;;;4.87;60.84;92448.50;4992477;28;20302;-33
2023/01/18 09:55:37;;;;;;;0.90;0.90;;;5.50;73.90;;;4.86;61.19;92457.28;4992031;28;20186;-33
2023/01/18 09:58:18;;;;;;;0.70;0.70;;;5.50;74.60;;;4.86;61.56;92462.50;4992161;28;20207;-33
2023/01/18 10:00:48;;;;;;;0.70;0.70;;;5.60;75.00;;;4.90;61.05;92460.25;5059604;28;20200;-33
2023/01/18 10:03:23;;;;;;;0.80;0.80;;;5.60;74.60;;;4.95;61.30;92470.78;4992804;28;20280;-33
2023/01/18 10:06:21;;;;;;;0.60;0.60;;;5.70;74.90;;;4.97;60.78;92463.56;5062433;28;20188;-33
2023/01/18 10:09:03;;;;;;;0.80;0.80;;;5.70;74.50;;;5.00;61.26;92470.13;4995334;28;20498;-37
2023/01/18 10:11:54;;;;;;;0.70;0.70;;;5.80;74.80;;;5.03;60.89;92470.50;4995166;28;20630;-34
2023/01/18 10:14:37;;;;;;;0.70;0.70;;;5.80;74.60;;;5.07;61.27;92479.44;4995393;28;20186;-33
2023/01/18 10:17:16;;;;;;;0.70;0.70;;;5.90;74.60;;;5.13;60.77;92485.56;4994036;28;20204;-33
2023/01/18 10:19:44;;;;;;;0.70;0.70;;;5.90;74.40;;;5.16;61.09;92484.34;4978235;28;20668;-33
2023/01/18 10:22:28;;;;;;;0.60;0.60;;;6.00;74.50;;;5.26;60.97;92487.19;4995072;28;20633;-33
2023/01/18 10:25:19;;;;;;;0.70;0.70;;;6.00;74.60;;;5.31;60.79;92489.13;5062166;28;20238;-33
2023/01/18 10:27:53;;;;;;;0.80;0.80;;;6.10;74.40;;;5.35;61.00;92485.09;5062010;28;20201;-33
2023/01/18 10:30:44;;;;;;;0.70;0.70;;;6.10;74.50;;;5.37;60.57;92480.47;4994965;28;20190;-33
2023/01/18 10:33:25;;;;;;;0.70;0.70;;;6.10;74.00;;;5.40;60.67;92483.41;5056857;28;20309;-33
2023/01/18 10:35:59;;;;;;;0.70;0.70;;;6.20;74.30;;;5.48;60.87;92487.53;5061764;28;20195;-33
2023/01/18 10:38:28;;;;;;;0.70;0.70;;;6.20;74.60;;;5.53;60.35;92492.03;5061939;28;20213;-33
2023/01/18 10:41:01;;;;;;;0.70;0.70;;;6.20;74.20;;;5.62;60.83;92498.53;5061976;28;20190;-33
2023/01/18 10:43:30;;;;;;;0.80;0.80;;;6.30;74.40;;;5.66;59.91;92494.47;4994936;28;20262;-33
2023/01/18 10:45:58;;;;;;;0.70;0.70;;;6.40;73.90;;;5.69;59.79;92506.22;4994439;28;20200;-33
2023/01/18 10:48:30;;;;;;;0.70;0.70;;;6.40;74.00;;;5.73;60.00;92510.78;5061595;28;20194;-33
2023/01/18 10:51:04;;;;;;;0.70;0.70;;;6.50;73.60;;;5.79;60.18;92511.72;4994645;28;20187;-33
2023/01/18 10:53:37;;;;;;;0.77;0.77;;;6.50;73.90;;;5.83;59.60;92510.25;5061502;28;20265;-33
2023/01/18 10:56:16;;;;;;;0.80;0.80;;;6.60;74.00;;;5.89;60.07;92517.16;4994353;28;20197;-33
2023/01/18 10:58:46;;;;;;;0.70;0.70;;;6.60;73.60;;;5.97;60.26;92521.28;5061505;28;20653;-33
2023/01/18 11:01:23;;;;;;;0.90;0.90;;;6.70;73.90;;;6.01;60.01;92522.44;4994438;28;20534;-33
2023/01/18 11:04:06;;;;;;;0.80;0.80;;;6.70;73.50;;;6.07;60.05;92525.97;5060267;28;20182;-34
2023/01/18 11:06:58;;;;;;;0.75;0.75;;;6.80;74.60;;;6.16;59.72;92534.22;4994728;28;20209;-34
2023/01/18 11:09:40;;;;;;;0.80;0.80;;;6.80;73.00;;;6.18;59.52;92530.38;5061289;28;20648;-34
2023/01/18 11:12:40;;;;;;;0.80;0.80;;;6.90;73.70;;;6.23;59.27;92537.53;5045219;28;20694;-34
2023/01/18 11:15:13;;;;;;;0.70;0.70;;;6.90;73.50;;;6.24;58.55;92536.53;4996931;28;20206;-34
2023/01/18 11:17:43;;;;;;;0.70;0.70;;;7.00;73.00;;;6.25;57.94;92541.50;4994120;28;20277;-34
2023/01/18 11:20:18;;;;;;;0.70;0.70;;;7.00;72.80;;;6.31;58.76;92532.00;5059258;28;20587;-34
2023/01/18 11:23:05;;;;;;;0.80;0.80;;;7.00;73.20;;;6.38;58.09;92534.50;5044998;28;20246;-34
2023/01/18 11:25:39;;;;;;;0.70;0.70;;;7.00;72.50;;;6.46;57.96;92541.97;5060509;28;20246;-34
2023/01/18 11:28:17;;;;;;;0.65;0.65;;;7.10;72.40;;;6.56;57.49;92541.41;5060876;28;20178;-34
2023/01/18 11:30:55;;;;;;;0.70;0.70;;;7.20;72.50;;;6.74;57.99;92535.31;5061181;28;20196;-34